If you wish to contribute or participate in the discussions about articles you are invited to join SKYbrary as a registered user

 Actions

Tarauacá Airport

From SKYbrary Wiki

SBTK
Airport
ICAO: SBTK – IATA: TRQ
Summary
Name Tarauacá Airport
Region South America and Caribbean
Territory Brazil BR.gif
Location Tarauacá, Acre
Serving Tarauacá
Elevation 60.046 m
197 ft60.046 m
Coordinates 8° 9' 16.99" S, 70° 46' 58.01" W
Runways
Designator Length Width Surface ROPS
14/32 1130 m3,707.349 ft
14 m45.932 ft
ASP /


METAR
Observation SBTK 200300Z AUTO 03004KT 9999 -RA NSC 23/23 Q1012
Station Tarauaca
Date/Time 20 November 2019 03:00:00
Wind direction 30°
Wind speed 04 kts
Lowest cloud amount nil significant cloud
Temperature 23°C
Dew point 23°C
Humidity 100%
QNH 1012 hPa
Weather condition light rain

José Galera dos Santos Airport (IATA: TRQ, ICAO: SBTK) is the airport serving Tarauacá, Brazil.

Climatology

Tropical monsoon climate (Köppen climate classification Am)

Maps

Terrain

Loading map...

Airport Layout

Loading map...


Accidents & Serious Incidents at or in vicinity of SBTK

None on SKYbrary